Stevensville, Michigan
Current Conditions -  °F | °C
As of 11:53 AM on Sunday 23 Nov 2014 (Local Time) from KBEH Reporting Station
Broken Clouds Broken Clouds  
Wind Chill: 52°   Ceiling: 11000
Heat Index: 52°   Visibility: 10mi
Dew Point: 45°   Wind: 10mph
Humidity: 77%   Direction: 160°SSE
Pressure: 29.74"   Gusts: NA
Location:  42.01°N, 86.52°W
Report Text: KBEH 231653Z AUTO 16009KT 10SM FEW020 BKN110 11/07 A2974 RMK AO2 SLP071 T01110072
Loading
Personal Weather Stations






























Interactive Weather Map New forecast layout! Learn more

10-Day Weather Forecast

Advertisements
Track Severe Weather on mobile